createdAt,value
2024-02-24T00:01:07.066Z,98998.48
2024-02-24T00:03:37.513Z,98997.98
2024-02-24T00:06:08.659Z,98996.06
2024-02-24T00:08:39.177Z,98984.49
2024-02-24T00:11:09.798Z,98988.77
2024-02-24T00:13:40.396Z,98991.44
2024-02-24T00:16:11.279Z,98992.05
2024-02-24T00:18:41.754Z,98991.34
2024-02-24T00:21:12.178Z,98994.60
2024-02-24T00:23:42.663Z,99000.41
2024-02-24T00:26:13.132Z,98999.66
2024-02-24T00:28:43.550Z,99003.38
2024-02-24T00:31:14.003Z,99001.02
2024-02-24T00:33:45.006Z,98999.47
2024-02-24T00:36:15.407Z,98996.23
2024-02-24T00:38:45.823Z,98995.67
2024-02-24T00:41:17.285Z,98994.31
2024-02-24T00:43:48.625Z,98991.67
2024-02-24T00:46:19.061Z,98991.42
2024-02-24T00:48:49.554Z,98990.13
2024-02-24T00:51:20.264Z,98989.83
2024-02-24T00:53:50.727Z,98990.04
2024-02-24T00:56:22.470Z,98989.38
2024-02-24T00:58:53.025Z,98985.94
2024-02-24T01:01:23.972Z,98987.73
2024-02-24T01:03:54.553Z,98987.90
2024-02-24T01:06:25.037Z,98991.98
2024-02-24T01:08:55.355Z,98986.61
2024-02-24T01:11:25.994Z,98988.94
2024-02-24T01:13:56.627Z,98984.36
2024-02-24T01:16:27.210Z,98986.36
2024-02-24T01:18:57.767Z,98986.27
2024-02-24T01:21:28.275Z,98981.95
2024-02-24T01:23:58.729Z,98987.08
2024-02-24T01:26:29.219Z,98987.52
2024-02-24T01:28:59.907Z,98989.31
2024-02-24T01:31:30.328Z,98983.48
2024-02-24T01:34:01.107Z,98984.08
2024-02-24T01:36:31.604Z,98989.18
2024-02-24T01:39:01.954Z,98983.80
2024-02-24T01:41:32.365Z,98983.29
2024-02-24T01:44:03.005Z,98982.36
2024-02-24T01:46:33.405Z,98982.69
2024-02-24T01:49:04.017Z,98982.05
2024-02-24T01:51:34.931Z,98978.01
2024-02-24T01:54:06.042Z,98974.67
2024-02-24T01:56:37.323Z,98975.91
2024-02-24T01:59:07.795Z,98977.17
2024-02-24T02:01:38.938Z,98974.84
2024-02-24T02:04:09.965Z,98973.93
2024-02-24T02:06:40.870Z,98976.67
2024-02-24T02:09:11.336Z,98978.34
2024-02-24T02:11:48.226Z,98977.55
2024-02-24T02:14:27.154Z,98972.77
2024-02-24T02:16:57.578Z,98976.05
2024-02-24T02:19:27.938Z,98979.79
2024-02-24T02:22:00.846Z,98978.88
2024-02-24T02:24:31.111Z,98978.91
2024-02-24T02:27:03.069Z,98971.97
2024-02-24T02:29:33.539Z,98962.30
2024-02-24T02:32:04.576Z,98966.45
2024-02-24T02:34:34.970Z,98973.48
2024-02-24T02:37:06.425Z,98970.48
2024-02-24T02:39:37.139Z,98972.17
2024-02-24T02:42:08.567Z,98970.54
2024-02-24T02:44:38.909Z,98971.84
2024-02-24T02:47:17.283Z,98975.78
2024-02-24T02:49:50.422Z,98978.27
2024-02-24T02:52:20.816Z,98984.75
2024-02-24T02:54:51.166Z,98977.11
2024-02-24T02:57:21.524Z,98974.73
2024-02-24T02:59:51.899Z,98978.40
2024-02-24T03:02:22.304Z,98976.79
2024-02-24T03:04:52.611Z,98977.13
2024-02-24T03:07:22.898Z,98975.02
2024-02-24T03:09:53.317Z,98974.60
2024-02-24T03:12:23.916Z,98978.59
2024-02-24T03:14:54.409Z,98978.86
2024-02-24T03:17:24.789Z,98984.58
2024-02-24T03:19:55.222Z,98987.04
2024-02-24T03:22:28.240Z,98989.54
2024-02-24T03:24:58.681Z,98995.00
2024-02-24T03:27:29.022Z,99002.97
2024-02-24T03:29:59.531Z,99003.54
2024-02-24T03:32:29.951Z,99007.16
2024-02-24T03:35:00.456Z,99005.36
2024-02-24T03:37:30.863Z,99009.19
2024-02-24T03:40:01.271Z,99004.45
2024-02-24T03:42:31.632Z,98997.89
2024-02-24T03:45:02.602Z,99005.40
2024-02-24T03:47:33.112Z,99005.20
2024-02-24T03:50:03.544Z,99011.06
2024-02-24T03:52:33.918Z,99006.35
2024-02-24T03:55:04.546Z,99009.55
2024-02-24T03:57:34.849Z,99012.52
2024-02-24T04:00:05.689Z,99014.00
2024-02-24T04:02:36.189Z,99016.19
2024-02-24T04:05:07.810Z,99016.84
2024-02-24T04:07:38.568Z,99018.96
2024-02-24T04:10:11.005Z,99014.35
2024-02-24T04:12:41.516Z,99016.47
2024-02-24T04:15:14.130Z,99018.42
2024-02-24T04:17:44.776Z,99019.95
2024-02-24T04:20:16.358Z,99026.75
2024-02-24T04:22:46.765Z,99023.28
2024-02-24T04:25:17.253Z,99024.59
2024-02-24T04:27:47.624Z,99026.35
2024-02-24T04:30:18.354Z,99029.05
2024-02-24T04:32:48.757Z,99023.85
2024-02-24T04:35:19.355Z,99023.77
2024-02-24T04:37:49.809Z,99026.73
2024-02-24T04:40:21.427Z,99027.56
2024-02-24T04:42:51.955Z,99031.90
2024-02-24T04:45:22.325Z,99033.37
2024-02-24T04:47:52.939Z,99041.91
2024-02-24T04:50:23.944Z,99049.12
2024-02-24T04:52:54.496Z,99050.06
2024-02-24T04:55:24.991Z,99053.70
2024-02-24T04:57:55.705Z,99055.61
2024-02-24T05:00:26.436Z,99058.41
2024-02-24T05:02:56.929Z,99057.80
2024-02-24T05:05:27.575Z,99061.77
2024-02-24T05:07:58.255Z,99058.74
2024-02-24T05:10:28.707Z,99066.63
2024-02-24T05:12:59.923Z,99070.95
2024-02-24T05:15:31.293Z,99068.73
2024-02-24T05:18:02.272Z,99070.77
2024-02-24T05:20:33.213Z,99072.25
2024-02-24T05:23:04.627Z,99069.54
2024-02-24T05:25:35.224Z,99064.71
2024-02-24T05:28:06.184Z,99064.66
2024-02-24T05:30:36.557Z,99065.03
2024-02-24T05:33:07.405Z,99061.48
2024-02-24T05:35:38.075Z,99060.98
2024-02-24T05:38:08.773Z,99059.89
2024-02-24T05:40:39.162Z,99064.77
2024-02-24T05:43:09.590Z,99068.59
2024-02-24T05:45:41.893Z,99063.60
2024-02-24T05:48:12.423Z,99064.67
2024-02-24T05:50:43.130Z,99061.80
2024-02-24T05:53:13.536Z,99064.14
2024-02-24T05:55:45.391Z,99070.38
2024-02-24T05:58:15.919Z,99073.35
2024-02-24T06:00:46.248Z,99083.09
2024-02-24T06:03:16.996Z,99088.60
2024-02-24T06:05:47.524Z,99089.67
2024-02-24T06:08:18.609Z,99091.83
2024-02-24T06:10:49.106Z,99089.60
2024-02-24T06:13:19.666Z,99089.86
2024-02-24T06:15:50.290Z,99094.27
2024-02-24T06:18:21.146Z,99096.36
2024-02-24T06:20:51.874Z,99104.04
2024-02-24T06:23:22.433Z,99101.47
2024-02-24T06:25:52.821Z,99099.42
2024-02-24T06:28:23.237Z,99103.37
2024-02-24T06:30:53.652Z,99102.41
2024-02-24T06:33:24.165Z,99105.63
2024-02-24T06:35:54.617Z,99106.38
2024-02-24T06:38:25.035Z,99104.01
2024-02-24T06:40:55.424Z,99108.34
2024-02-24T06:43:25.769Z,99112.45
2024-02-24T06:45:56.123Z,99115.38
2024-02-24T06:48:26.718Z,99119.89
2024-02-24T06:50:57.339Z,99128.31
2024-02-24T06:53:27.768Z,99125.10
2024-02-24T06:55:58.111Z,99125.41
2024-02-24T06:58:28.649Z,99128.65
2024-02-24T07:00:59.393Z,99136.34
2024-02-24T07:03:31.190Z,99141.27
2024-02-24T07:06:03.002Z,99148.80
2024-02-24T07:08:33.685Z,99144.23
2024-02-24T07:11:06.897Z,99153.45
2024-02-24T07:13:37.358Z,99158.70
2024-02-24T07:16:09.808Z,99164.66
2024-02-24T07:18:41.549Z,99161.98
2024-02-24T07:21:12.388Z,99167.31
2024-02-24T07:23:42.869Z,99169.87
2024-02-24T07:26:18.349Z,99170.58
2024-02-24T07:28:48.834Z,99174.68
2024-02-24T07:31:19.356Z,99175.88
2024-02-24T07:33:50.506Z,99176.45
2024-02-24T07:36:21.111Z,99178.08
2024-02-24T07:38:51.485Z,99178.35
2024-02-24T07:41:22.351Z,99186.00
2024-02-24T07:43:53.081Z,99183.08
2024-02-24T07:46:30.114Z,99182.23
2024-02-24T07:49:02.332Z,99186.23
2024-02-24T07:51:33.292Z,99193.27
2024-02-24T07:54:03.649Z,99195.15
2024-02-24T07:56:34.069Z,99195.27
2024-02-24T07:59:04.475Z,99197.90
2024-02-24T08:01:34.919Z,99198.31
2024-02-24T08:04:05.774Z,99197.22
2024-02-24T08:06:36.277Z,99205.77
2024-02-24T08:09:07.342Z,99208.69
2024-02-24T08:11:41.383Z,99205.92
2024-02-24T08:14:12.321Z,99205.98
2024-02-24T08:16:42.713Z,99208.30
2024-02-24T08:19:13.135Z,99203.19
2024-02-24T08:21:43.611Z,99206.23
2024-02-24T08:24:17.532Z,99206.50
2024-02-24T08:26:49.488Z,99201.14
2024-02-24T08:29:20.074Z,99199.39
2024-02-24T08:31:51.419Z,99199.94
2024-02-24T08:34:22.051Z,99194.61
2024-02-24T08:36:52.579Z,99198.38
2024-02-24T08:39:22.872Z,99202.86
2024-02-24T08:41:53.304Z,99204.24
2024-02-24T08:44:23.801Z,99208.14
2024-02-24T08:46:54.221Z,99210.44
2024-02-24T08:49:24.897Z,99211.79
2024-02-24T08:51:55.268Z,99216.17
2024-02-24T08:54:25.584Z,99218.81
2024-02-24T08:56:55.927Z,99223.69
2024-02-24T08:59:26.369Z,99221.77
2024-02-24T09:01:56.951Z,99224.46
2024-02-24T09:04:27.372Z,99220.84
2024-02-24T09:06:57.740Z,99222.55
2024-02-24T09:09:28.188Z,99224.73
2024-02-24T09:11:58.634Z,99223.11
2024-02-24T09:14:29.078Z,99223.79
2024-02-24T09:16:59.399Z,99226.29
2024-02-24T09:19:29.806Z,99223.89
2024-02-24T09:22:00.512Z,99222.65
2024-02-24T09:24:31.325Z,99220.55
2024-02-24T09:27:01.832Z,99230.77
2024-02-24T09:29:32.336Z,99230.23
2024-02-24T09:32:03.357Z,99233.40
2024-02-24T09:34:33.816Z,99235.46
2024-02-24T09:37:06.475Z,99238.25
2024-02-24T09:39:37.078Z,99240.39
2024-02-24T09:42:10.556Z,99251.79
2024-02-24T09:44:42.666Z,99250.38
2024-02-24T09:47:15.378Z,99254.48
2024-02-24T09:49:47.757Z,99261.63
2024-02-24T09:52:18.337Z,99265.17
2024-02-24T09:54:49.676Z,99268.84
2024-02-24T09:57:22.843Z,99271.80
2024-02-24T09:59:54.088Z,99273.13
2024-02-24T10:02:24.708Z,99274.98
2024-02-24T10:04:55.945Z,99279.40
2024-02-24T10:07:28.653Z,99285.27
2024-02-24T10:09:59.173Z,99288.23
2024-02-24T10:12:31.055Z,99289.08
2024-02-24T10:15:01.644Z,99295.31
2024-02-24T10:17:33.048Z,99299.15
2024-02-24T10:20:03.889Z,99299.37
2024-02-24T10:22:34.175Z,99303.83
2024-02-24T10:25:04.710Z,99307.71
2024-02-24T10:27:35.256Z,99313.94
2024-02-24T10:30:08.523Z,99311.15
2024-02-24T10:32:40.017Z,99312.58
2024-02-24T10:35:12.593Z,99319.08
2024-02-24T10:38:03.160Z,99321.56
2024-02-24T10:40:37.841Z,99317.82
2024-02-24T10:43:08.831Z,99316.60
2024-02-24T10:45:39.410Z,99310.10
2024-02-24T10:48:10.946Z,99307.73
2024-02-24T10:50:41.586Z,99300.69
2024-02-24T10:53:15.216Z,99302.83
2024-02-24T10:55:46.804Z,99299.05
2024-02-24T10:58:23.313Z,99304.06
2024-02-24T11:00:55.009Z,99305.02
2024-02-24T11:03:26.155Z,99305.55
2024-02-24T11:05:56.983Z,99310.05
2024-02-24T11:08:42.351Z,99311.27
2024-02-24T11:11:15.424Z,99310.38
2024-02-24T11:14:00.101Z,99311.71
2024-02-24T11:16:40.309Z,99308.40
2024-02-24T11:19:13.812Z,99314.62
2024-02-24T11:22:02.530Z,99319.11
2024-02-24T11:24:37.866Z,99319.27
2024-02-24T11:27:08.730Z,99317.16
2024-02-24T11:29:39.802Z,99314.48
2024-02-24T11:32:14.175Z,99312.93
2024-02-24T11:34:46.569Z,99314.10
2024-02-24T11:37:22.222Z,99308.65
2024-02-24T11:39:54.215Z,99306.70
2024-02-24T11:42:25.361Z,99304.54
2024-02-24T11:44:55.989Z,99312.02
2024-02-24T11:47:29.495Z,99315.09
2024-02-24T11:49:59.867Z,99314.73
2024-02-24T11:52:30.875Z,99312.13
2024-02-24T11:55:01.495Z,99312.42
2024-02-24T11:57:33.205Z,99319.94
2024-02-24T12:00:03.744Z,99323.15
2024-02-24T12:02:35.355Z,99322.20
2024-02-24T12:05:17.978Z,99325.41
2024-02-24T12:07:48.739Z,99329.04
2024-02-24T12:10:20.582Z,99333.52
2024-02-24T12:12:51.476Z,99329.13
2024-02-24T12:15:22.109Z,99327.41
2024-02-24T12:17:53.763Z,99331.09
2024-02-24T12:20:28.767Z,99329.16
2024-02-24T12:23:03.942Z,99329.08
2024-02-24T12:25:34.818Z,99326.80
2024-02-24T12:28:06.785Z,99328.84
2024-02-24T12:30:40.207Z,99327.16
2024-02-24T12:33:17.908Z,99327.65
2024-02-24T12:35:50.914Z,99322.94
2024-02-24T12:38:21.384Z,99324.36
2024-02-24T12:40:51.784Z,99320.92
2024-02-24T12:43:22.411Z,99323.17
2024-02-24T12:45:53.328Z,99323.04
2024-02-24T12:48:24.068Z,99322.11
2024-02-24T12:50:54.653Z,99325.02
2024-02-24T12:53:25.657Z,99320.77
2024-02-24T12:55:56.471Z,99326.34
2024-02-24T12:58:27.211Z,99320.27
2024-02-24T13:00:58.761Z,99317.77
2024-02-24T13:03:29.382Z,99320.38
2024-02-24T13:06:00.266Z,99319.02
2024-02-24T13:08:30.786Z,99322.32
2024-02-24T13:11:04.614Z,99323.13
2024-02-24T13:13:34.991Z,99331.99
2024-02-24T13:16:05.877Z,99334.33
2024-02-24T13:18:36.635Z,99335.59
2024-02-24T13:21:07.935Z,99344.14
2024-02-24T13:23:38.352Z,99339.97
2024-02-24T13:26:08.986Z,99344.77
2024-02-24T13:28:39.417Z,99342.42
2024-02-24T13:31:10.064Z,99344.45
2024-02-24T13:33:43.114Z,99346.30
2024-02-24T13:36:13.547Z,99349.71
2024-02-24T13:38:44.551Z,99353.02
2024-02-24T13:41:15.108Z,99354.23
2024-02-24T13:43:45.657Z,99359.20
2024-02-24T13:46:15.984Z,99358.02
2024-02-24T13:48:46.596Z,99364.63
2024-02-24T13:51:16.980Z,99367.16
2024-02-24T13:53:47.398Z,99363.77
2024-02-24T13:56:20.193Z,99362.17
2024-02-24T13:58:50.505Z,99363.83
2024-02-24T14:01:20.952Z,99368.33
2024-02-24T14:03:51.319Z,99370.14
2024-02-24T14:06:24.659Z,99363.69
2024-02-24T14:08:55.757Z,99365.11
2024-02-24T14:11:26.483Z,99370.84
2024-02-24T14:13:57.253Z,99370.65
2024-02-24T14:16:34.242Z,99381.17
2024-02-24T14:19:04.984Z,99382.23
2024-02-24T14:21:35.430Z,99384.68
2024-02-24T14:24:06.594Z,99392.33
2024-02-24T14:26:37.106Z,99395.33
2024-02-24T14:29:07.452Z,99396.69
2024-02-24T14:31:37.973Z,99396.84
2024-02-24T14:34:08.420Z,99393.45
2024-02-24T14:36:38.910Z,99390.84
2024-02-24T14:39:09.298Z,99391.00
2024-02-24T14:41:39.755Z,99389.97
2024-02-24T14:44:10.192Z,99391.15
2024-02-24T14:46:57.689Z,99397.79
2024-02-24T14:49:28.274Z,99393.72
2024-02-24T14:51:59.218Z,99391.51
2024-02-24T14:54:30.413Z,99396.70
2024-02-24T14:57:00.906Z,99392.90
2024-02-24T14:59:32.211Z,99401.04
2024-02-24T15:02:02.586Z,99404.17
2024-02-24T15:04:33.162Z,99411.29
2024-02-24T15:07:04.359Z,99412.97
2024-02-24T15:09:35.355Z,99417.19
2024-02-24T15:12:07.020Z,99424.27
2024-02-24T15:14:38.690Z,99437.14
2024-02-24T15:17:09.202Z,99450.26
2024-02-24T15:19:41.771Z,99460.88
2024-02-24T15:22:12.643Z,99471.81
2024-02-24T15:24:43.320Z,99462.74
2024-02-24T15:27:14.300Z,99457.08
2024-02-24T15:29:44.718Z,99459.30
2024-02-24T15:32:15.189Z,99456.15
2024-02-24T15:34:46.132Z,99453.64
2024-02-24T15:37:16.495Z,99452.63
2024-02-24T15:39:46.872Z,99454.48
2024-02-24T15:42:17.617Z,99457.98
2024-02-24T15:44:48.164Z,99460.54
2024-02-24T15:47:18.765Z,99461.98
2024-02-24T15:49:49.197Z,99468.40
2024-02-24T15:52:19.933Z,99467.70
2024-02-24T15:54:51.093Z,99466.74
2024-02-24T15:57:21.509Z,99470.41
2024-02-24T15:59:52.029Z,99478.09
2024-02-24T16:02:22.529Z,99480.60
2024-02-24T16:04:53.034Z,99488.08
2024-02-24T16:07:23.392Z,99491.33
2024-02-24T16:09:53.704Z,99490.58
2024-02-24T16:12:24.236Z,99492.25
2024-02-24T16:14:54.891Z,99498.09
2024-02-24T16:17:25.541Z,99500.14
2024-02-24T16:19:55.987Z,99503.89
2024-02-24T16:22:26.513Z,99506.83
2024-02-24T16:24:56.944Z,99513.92
2024-02-24T16:27:27.357Z,99518.83
2024-02-24T16:29:57.735Z,99523.27
2024-02-24T16:32:28.378Z,99525.05
2024-02-24T16:34:59.210Z,99529.05
2024-02-24T16:37:29.744Z,99533.73
2024-02-24T16:40:00.324Z,99536.10
2024-02-24T16:42:30.681Z,99544.48
2024-02-24T16:45:03.481Z,99543.33
2024-02-24T16:47:34.255Z,99548.35
2024-02-24T16:50:07.131Z,99555.89
2024-02-24T16:52:37.476Z,99563.55
2024-02-24T16:55:11.032Z,99570.79
2024-02-24T16:57:41.721Z,99572.04
2024-02-24T17:00:14.959Z,99575.85
2024-02-24T17:02:45.502Z,99580.71
2024-02-24T17:05:19.678Z,99581.55
2024-02-24T17:07:50.277Z,99586.60
2024-02-24T17:10:20.943Z,99588.29
2024-02-24T17:12:51.549Z,99591.52
2024-02-24T17:15:22.594Z,99593.27
2024-02-24T17:17:53.118Z,99598.16
2024-02-24T17:20:23.780Z,99599.59
2024-02-24T17:22:54.243Z,99605.05
2024-02-24T17:25:24.574Z,99609.83
2024-02-24T17:27:54.931Z,99614.55
2024-02-24T17:30:25.142Z,99613.27
2024-02-24T17:32:55.639Z,99616.73
2024-02-24T17:35:26.186Z,99621.73
2024-02-24T17:37:56.700Z,99625.41
2024-02-24T17:40:27.048Z,99630.31
2024-02-24T17:42:57.878Z,99635.82
2024-02-24T17:45:28.330Z,99634.65
2024-02-24T17:47:58.888Z,99639.30
2024-02-24T17:50:29.365Z,99643.85
2024-02-24T17:53:00.890Z,99645.33
2024-02-24T17:55:31.570Z,99649.46
2024-02-24T17:58:03.777Z,99650.97
2024-02-24T18:00:34.356Z,99651.05
2024-02-24T18:03:05.365Z,99649.38
2024-02-24T18:05:35.868Z,99649.42
2024-02-24T18:08:07.793Z,99647.92
2024-02-24T18:10:38.257Z,99659.39
2024-02-24T18:13:08.971Z,99658.99
2024-02-24T18:15:40.010Z,99657.07
2024-02-24T18:18:10.683Z,99658.82
2024-02-24T18:20:42.091Z,99663.50
2024-02-24T18:23:12.637Z,99663.92
2024-02-24T18:25:42.930Z,99661.91
2024-02-24T18:28:13.305Z,99659.60
2024-02-24T18:30:43.628Z,99659.27
2024-02-24T18:33:14.350Z,99654.66
2024-02-24T18:35:45.266Z,99657.84
2024-02-24T18:38:16.294Z,99664.52
2024-02-24T18:40:46.802Z,99667.98
2024-02-24T18:43:20.641Z,99664.27
2024-02-24T18:45:51.629Z,99667.21
2024-02-24T18:48:22.299Z,99663.54
2024-02-24T18:50:52.688Z,99666.23
2024-02-24T18:53:23.177Z,99665.80
2024-02-24T18:55:53.499Z,99669.46
2024-02-24T18:58:23.919Z,99667.63
2024-02-24T19:00:55.754Z,99665.80
2024-02-24T19:03:26.108Z,99670.21
2024-02-24T19:05:57.062Z,99671.59
2024-02-24T19:08:27.487Z,99670.51
2024-02-24T19:10:58.869Z,99676.86
2024-02-24T19:13:29.438Z,99676.21
2024-02-24T19:15:59.921Z,99679.48
2024-02-24T19:18:30.435Z,99683.90
2024-02-24T19:21:01.028Z,99689.63
2024-02-24T19:23:32.180Z,99688.49
2024-02-24T19:26:02.531Z,99686.49
2024-02-24T19:28:32.845Z,99687.15
2024-02-24T19:31:03.263Z,99691.10
2024-02-24T19:33:33.901Z,99688.70
2024-02-24T19:36:04.702Z,99691.61
2024-02-24T19:38:35.117Z,99688.92
2024-02-24T19:41:05.505Z,99691.28
2024-02-24T19:43:35.823Z,99689.52
2024-02-24T19:46:06.468Z,99689.11
2024-02-24T19:48:36.942Z,99684.71
2024-02-24T19:51:13.622Z,99682.64
2024-02-24T19:53:44.565Z,99680.27
2024-02-24T19:56:15.355Z,99686.16
2024-02-24T19:58:54.180Z,99686.23
2024-02-24T20:01:26.886Z,99689.09
2024-02-24T20:03:57.254Z,99691.38
2024-02-24T20:06:27.814Z,99693.82
2024-02-24T20:08:58.322Z,99695.13
2024-02-24T20:11:28.813Z,99698.08
2024-02-24T20:13:59.512Z,99691.92
2024-02-24T20:16:29.930Z,99695.66
2024-02-24T20:19:00.615Z,99697.64
2024-02-24T20:21:31.497Z,99701.27
2024-02-24T20:24:02.076Z,99699.74
2024-02-24T20:26:32.749Z,99700.60
2024-02-24T20:29:04.327Z,99703.75
2024-02-24T20:31:34.725Z,99701.05
2024-02-24T20:34:08.377Z,99702.17
2024-02-24T20:36:39.649Z,99702.30
2024-02-24T20:39:10.091Z,99702.45
2024-02-24T20:41:43.104Z,99709.59
2024-02-24T20:44:13.486Z,99704.21
2024-02-24T20:46:47.251Z,99704.52
2024-02-24T20:49:22.474Z,99701.46
2024-02-24T20:51:58.430Z,99706.97
2024-02-24T20:54:35.929Z,99707.38
2024-02-24T20:57:08.231Z,99706.73
2024-02-24T20:59:38.694Z,99708.27
2024-02-24T21:02:09.598Z,99711.15
2024-02-24T21:04:39.987Z,99713.98
2024-02-24T21:07:10.355Z,99713.08
2024-02-24T21:09:40.667Z,99710.41
2024-02-24T21:12:13.229Z,99712.92
2024-02-24T21:14:43.699Z,99710.33
2024-02-24T21:17:14.041Z,99716.10
2024-02-24T21:19:44.482Z,99720.45
2024-02-24T21:22:15.523Z,99724.29
2024-02-24T21:24:45.929Z,99725.81
2024-02-24T21:27:19.247Z,99724.39
2024-02-24T21:29:50.042Z,99730.19
2024-02-24T21:32:20.511Z,99732.02
2024-02-24T21:34:51.701Z,99736.86
2024-02-24T21:37:25.572Z,99730.13
2024-02-24T21:39:57.147Z,99737.08
2024-02-24T21:42:28.063Z,99733.25
2024-02-24T21:44:58.499Z,99738.48
2024-02-24T21:47:28.929Z,99735.25
2024-02-24T21:49:59.338Z,99732.37
2024-02-24T21:52:29.616Z,99732.94
2024-02-24T21:54:59.918Z,99738.88
2024-02-24T21:57:33.104Z,99736.75
2024-02-24T22:00:03.970Z,99738.75
2024-02-24T22:02:34.489Z,99741.33
2024-02-24T22:05:05.370Z,99740.90
2024-02-24T22:07:35.797Z,99740.33
2024-02-24T22:10:07.640Z,99744.88
2024-02-24T22:12:38.089Z,99742.92
2024-02-24T22:15:14.022Z,99751.81
2024-02-24T22:17:44.670Z,99751.34
2024-02-24T22:20:18.483Z,99751.40
2024-02-24T22:22:49.483Z,99755.86
2024-02-24T22:25:22.842Z,99759.19
2024-02-24T22:27:53.826Z,99756.85
2024-02-24T22:30:24.541Z,99755.96
2024-02-24T22:32:56.166Z,99756.09
2024-02-24T22:35:26.812Z,99756.81
2024-02-24T22:37:57.245Z,99759.36
2024-02-24T22:40:27.658Z,99761.72
2024-02-24T22:42:58.109Z,99759.52
2024-02-24T22:45:28.731Z,99763.19
2024-02-24T22:47:59.388Z,99766.64
2024-02-24T22:50:30.777Z,99764.05
2024-02-24T22:53:01.635Z,99770.74
2024-02-24T22:55:33.923Z,99775.80
2024-02-24T22:58:04.673Z,99782.23
2024-02-24T23:00:36.031Z,99778.11
2024-02-24T23:03:07.742Z,99775.58
2024-02-24T23:05:38.136Z,99779.95
2024-02-24T23:08:09.885Z,99779.64
2024-02-24T23:10:40.259Z,99780.55
2024-02-24T23:13:10.721Z,99783.48
2024-02-24T23:15:41.056Z,99790.15
2024-02-24T23:18:11.620Z,99788.08
2024-02-24T23:20:42.107Z,99788.54
2024-02-24T23:23:12.606Z,99790.70
2024-02-24T23:25:44.258Z,99788.53
2024-02-24T23:28:15.665Z,99785.83
2024-02-24T23:30:47.023Z,99787.50
2024-02-24T23:33:17.687Z,99790.04
2024-02-24T23:35:48.223Z,99789.05
2024-02-24T23:38:18.608Z,99793.31
2024-02-24T23:40:49.145Z,99796.49
2024-02-24T23:43:19.536Z,99795.40
2024-02-24T23:45:49.911Z,99790.55
2024-02-24T23:48:20.500Z,99792.42
2024-02-24T23:50:51.035Z,99797.67
2024-02-24T23:53:21.497Z,99795.55
2024-02-24T23:55:52.572Z,99796.27
2024-02-24T23:58:22.943Z,99797.30
